createdAt,value
2023-05-14T00:02:05.587Z,96767.44
2023-05-14T00:04:33.256Z,96764.00
2023-05-14T00:07:02.226Z,96761.47
2023-05-14T00:09:30.293Z,96754.63
2023-05-14T00:11:57.861Z,96759.63
2023-05-14T00:14:25.376Z,96751.69
2023-05-14T00:16:52.892Z,96760.41
2023-05-14T00:19:20.701Z,96763.22
2023-05-14T00:21:48.284Z,96759.66
2023-05-14T00:24:17.115Z,96758.28
2023-05-14T00:26:44.720Z,96753.22
2023-05-14T00:29:12.257Z,96747.63
2023-05-14T00:31:39.853Z,96750.88
2023-05-14T00:34:07.447Z,96748.03
2023-05-14T00:36:34.991Z,96748.75
2023-05-14T00:39:02.524Z,96750.06
2023-05-14T00:41:31.368Z,96739.25
2023-05-14T00:43:59.050Z,96749.06
2023-05-14T00:46:26.886Z,96753.25
2023-05-14T00:48:54.656Z,96750.94
2023-05-14T00:51:23.186Z,96749.47
2023-05-14T00:53:51.801Z,96748.72
2023-05-14T00:56:19.917Z,96743.31
2023-05-14T00:58:48.785Z,96750.00
2023-05-14T01:01:16.629Z,96743.25
2023-05-14T01:03:45.280Z,96743.94
2023-05-14T01:06:19.623Z,96745.03
2023-05-14T01:09:09.873Z,96737.94
2023-05-14T01:11:43.174Z,96738.44
2023-05-14T01:14:21.102Z,96743.81
2023-05-14T01:16:49.341Z,96737.31
2023-05-14T01:19:24.215Z,96732.38
2023-05-14T01:21:53.101Z,96740.38
2023-05-14T01:24:20.672Z,96738.69
2023-05-14T01:26:48.337Z,96733.81
2023-05-14T01:29:21.014Z,96727.13
2023-05-14T01:31:50.818Z,96726.78
2023-05-14T01:34:22.065Z,96731.06
2023-05-14T01:36:51.172Z,96724.91
2023-05-14T01:39:20.825Z,96719.25
2023-05-14T01:41:49.582Z,96723.59
2023-05-14T01:44:18.450Z,96720.50
2023-05-14T01:46:45.964Z,96723.94
2023-05-14T01:49:13.635Z,96723.44
2023-05-14T01:51:41.274Z,96726.09
2023-05-14T01:54:08.816Z,96717.88
2023-05-14T01:56:37.671Z,96717.03
2023-05-14T01:59:05.261Z,96723.44
2023-05-14T02:01:33.810Z,96717.72
2023-05-14T02:04:01.992Z,96716.19
2023-05-14T02:06:29.549Z,96714.91
2023-05-14T02:08:57.045Z,96718.78
2023-05-14T02:11:24.560Z,96713.81
2023-05-14T02:13:53.453Z,96721.84
2023-05-14T02:16:20.991Z,96721.19
2023-05-14T02:18:48.516Z,96718.63
2023-05-14T02:21:16.081Z,96713.69
2023-05-14T02:23:44.171Z,96709.03
2023-05-14T02:26:13.072Z,96705.59
2023-05-14T02:28:40.678Z,96702.69
2023-05-14T02:31:09.567Z,96698.88
2023-05-14T02:33:37.178Z,96704.50
2023-05-14T02:36:04.793Z,96702.97
2023-05-14T02:38:32.347Z,96698.09
2023-05-14T02:40:59.815Z,96699.56
2023-05-14T02:43:27.351Z,96697.16
2023-05-14T02:45:54.927Z,96695.44
2023-05-14T02:48:23.831Z,96695.50
2023-05-14T02:50:52.057Z,96695.25
2023-05-14T02:53:19.666Z,96694.94
2023-05-14T02:55:47.173Z,96694.63
2023-05-14T02:58:14.974Z,96690.31
2023-05-14T03:00:42.484Z,96690.22
2023-05-14T03:03:10.366Z,96700.09
2023-05-14T03:05:39.809Z,96692.81
2023-05-14T03:08:07.570Z,96685.06
2023-05-14T03:10:35.116Z,96688.66
2023-05-14T03:13:02.643Z,96693.28
2023-05-14T03:15:30.424Z,96696.59
2023-05-14T03:17:57.968Z,96690.94
2023-05-14T03:20:26.333Z,96688.25
2023-05-14T03:22:56.031Z,96689.75
2023-05-14T03:25:23.566Z,96687.16
2023-05-14T03:27:51.072Z,96681.06
2023-05-14T03:30:18.659Z,96687.56
2023-05-14T03:32:46.467Z,96676.88
2023-05-14T03:35:13.983Z,96679.88
2023-05-14T03:37:41.452Z,96678.78
2023-05-14T03:40:11.098Z,96686.50
2023-05-14T03:42:38.563Z,96687.94
2023-05-14T03:45:07.626Z,96681.41
2023-05-14T03:47:35.153Z,96685.66
2023-05-14T03:50:02.651Z,96683.91
2023-05-14T03:52:30.547Z,96685.41
2023-05-14T03:54:58.036Z,96681.25
2023-05-14T03:57:26.874Z,96681.84
2023-05-14T03:59:54.368Z,96683.78
2023-05-14T04:02:21.958Z,96684.88
2023-05-14T04:04:49.572Z,96688.91
2023-05-14T04:07:17.134Z,96690.41
2023-05-14T04:09:44.634Z,96687.66
2023-05-14T04:12:12.186Z,96688.91
2023-05-14T04:14:41.090Z,96688.63
2023-05-14T04:17:08.590Z,96693.00
2023-05-14T04:19:36.104Z,96684.75
2023-05-14T04:22:03.988Z,96690.81
2023-05-14T04:24:31.546Z,96690.56
2023-05-14T04:26:59.076Z,96691.88
2023-05-14T04:29:26.572Z,96686.50
2023-05-14T04:31:55.977Z,96680.81
2023-05-14T04:34:23.537Z,96690.88
2023-05-14T04:36:51.759Z,96689.56
2023-05-14T04:39:20.390Z,96694.53
2023-05-14T04:41:47.876Z,96695.97
2023-05-14T04:44:15.754Z,96688.09
2023-05-14T04:46:43.244Z,96691.25
2023-05-14T04:49:12.276Z,96687.88
2023-05-14T04:51:39.813Z,96689.78
2023-05-14T04:54:07.369Z,96691.97
2023-05-14T04:56:34.902Z,96696.50
2023-05-14T04:59:02.455Z,96694.03
2023-05-14T05:01:30.074Z,96696.06
2023-05-14T05:03:58.105Z,96703.41
2023-05-14T05:06:27.013Z,96694.81
2023-05-14T05:08:54.537Z,96698.88
2023-05-14T05:11:22.054Z,96695.91
2023-05-14T05:13:49.559Z,96693.72
2023-05-14T05:16:17.301Z,96694.34
2023-05-14T05:18:45.604Z,96699.03
2023-05-14T05:21:13.152Z,96695.13
2023-05-14T05:23:42.021Z,96707.63
2023-05-14T05:26:09.746Z,96704.47
2023-05-14T05:28:37.246Z,96700.63
2023-05-14T05:31:05.007Z,96705.47
2023-05-14T05:33:32.672Z,96708.50
2023-05-14T05:36:00.203Z,96701.84
2023-05-14T05:38:27.755Z,96702.31
2023-05-14T05:40:56.694Z,96704.44
2023-05-14T05:43:24.180Z,96701.03
2023-05-14T05:45:51.700Z,96703.88
2023-05-14T05:48:19.194Z,96699.06
2023-05-14T05:50:48.977Z,96696.00
2023-05-14T05:53:17.534Z,96698.91
2023-05-14T05:55:45.044Z,96701.09
2023-05-14T05:58:15.689Z,96706.09
2023-05-14T06:00:43.218Z,96706.19
2023-05-14T06:03:10.795Z,96706.88
2023-05-14T06:05:38.430Z,96701.28
2023-05-14T06:08:06.396Z,96701.09
2023-05-14T06:10:34.716Z,96705.25
2023-05-14T06:13:02.283Z,96704.47
2023-05-14T06:15:31.248Z,96702.47
2023-05-14T06:17:58.930Z,96704.00
2023-05-14T06:20:26.622Z,96698.22
2023-05-14T06:22:55.403Z,96705.09
2023-05-14T06:25:23.060Z,96704.63
2023-05-14T06:27:50.583Z,96707.88
2023-05-14T06:30:18.130Z,96704.44
2023-05-14T06:32:46.983Z,96709.56
2023-05-14T06:35:14.518Z,96697.56
2023-05-14T06:37:42.009Z,96704.34
2023-05-14T06:40:10.666Z,96699.19
2023-05-14T06:42:38.196Z,96698.72
2023-05-14T06:45:06.733Z,96706.75
2023-05-14T06:47:34.339Z,96695.97
2023-05-14T06:50:03.261Z,96698.16
2023-05-14T06:52:30.883Z,96703.47
2023-05-14T06:54:58.418Z,96702.72
2023-05-14T06:57:26.064Z,96695.88
2023-05-14T06:59:53.536Z,96691.53
2023-05-14T07:02:21.156Z,96696.19
2023-05-14T07:04:49.031Z,96695.75
2023-05-14T07:07:20.553Z,96695.56
2023-05-14T07:09:48.228Z,96701.38
2023-05-14T07:12:15.737Z,96704.66
2023-05-14T07:14:43.240Z,96700.53
2023-05-14T07:17:11.067Z,96696.38
2023-05-14T07:19:38.617Z,96697.63
2023-05-14T07:22:06.145Z,96690.09
2023-05-14T07:24:35.160Z,96688.56
2023-05-14T07:27:02.897Z,96696.88
2023-05-14T07:29:31.053Z,96697.69
2023-05-14T07:31:58.564Z,96683.31
2023-05-14T07:34:26.099Z,96689.31
2023-05-14T07:36:54.002Z,96697.53
2023-05-14T07:39:22.672Z,96684.75
2023-05-14T07:41:51.826Z,96690.66
2023-05-14T07:44:19.436Z,96689.97
2023-05-14T07:46:46.938Z,96683.53
2023-05-14T07:49:14.425Z,96683.47
2023-05-14T07:51:41.956Z,96685.84
2023-05-14T07:54:09.537Z,96680.03
2023-05-14T07:56:37.031Z,96679.78
2023-05-14T07:59:06.989Z,96676.97
2023-05-14T08:01:34.473Z,96682.78
2023-05-14T08:04:02.182Z,96685.91
2023-05-14T08:06:29.914Z,96683.28
2023-05-14T08:08:57.426Z,96685.66
2023-05-14T08:11:24.935Z,96685.06
2023-05-14T08:13:52.492Z,96689.31
2023-05-14T08:16:21.391Z,96685.22
2023-05-14T08:18:49.520Z,96682.19
2023-05-14T08:21:17.479Z,96677.53
2023-05-14T08:23:45.445Z,96674.50
2023-05-14T08:26:12.960Z,96675.75
2023-05-14T08:28:40.519Z,96667.97
2023-05-14T08:31:08.239Z,96668.75
2023-05-14T08:33:37.184Z,96676.97
2023-05-14T08:36:05.416Z,96656.28
2023-05-14T08:38:33.079Z,96672.41
2023-05-14T08:41:01.457Z,96671.72
2023-05-14T08:43:35.362Z,96665.06
2023-05-14T08:46:06.730Z,96667.06
2023-05-14T08:48:36.038Z,96665.06
2023-05-14T08:51:05.273Z,96668.19
2023-05-14T08:53:32.854Z,96665.47
2023-05-14T08:56:02.044Z,96665.16
2023-05-14T08:58:29.829Z,96661.06
2023-05-14T09:00:57.550Z,96656.81
2023-05-14T09:03:25.376Z,96653.28
2023-05-14T09:05:53.127Z,96655.63
2023-05-14T09:08:22.233Z,96655.31
2023-05-14T09:10:49.771Z,96654.31
2023-05-14T09:13:17.327Z,96650.56
2023-05-14T09:15:44.819Z,96651.19
2023-05-14T09:18:12.579Z,96646.50
2023-05-14T09:20:40.299Z,96643.97
2023-05-14T09:23:07.878Z,96645.47
2023-05-14T09:25:36.708Z,96646.56
2023-05-14T09:28:09.382Z,96653.50
2023-05-14T09:30:37.066Z,96650.00
2023-05-14T09:33:04.967Z,96650.94
2023-05-14T09:35:33.304Z,96651.59
2023-05-14T09:38:00.847Z,96648.88
2023-05-14T09:40:28.911Z,96646.91
2023-05-14T09:42:58.164Z,96647.31
2023-05-14T09:45:25.994Z,96648.44
2023-05-14T09:47:53.777Z,96645.91
2023-05-14T09:50:21.738Z,96644.50
2023-05-14T09:52:49.416Z,96640.84
2023-05-14T09:55:17.065Z,96639.03
2023-05-14T09:57:44.980Z,96640.47
2023-05-14T10:00:16.012Z,96635.03
2023-05-14T10:02:45.839Z,96634.38
2023-05-14T10:05:15.784Z,96627.69
2023-05-14T10:07:48.280Z,96640.94
2023-05-14T10:10:19.522Z,96625.00
2023-05-14T10:12:52.308Z,96617.81
2023-05-14T10:15:28.094Z,96621.03
2023-05-14T10:17:59.710Z,96623.16
2023-05-14T10:20:28.642Z,96609.81
2023-05-14T10:22:57.199Z,96610.84
2023-05-14T10:25:25.606Z,96611.09
2023-05-14T10:27:53.880Z,96610.69
2023-05-14T10:30:24.046Z,96611.34
2023-05-14T10:33:06.927Z,96608.81
2023-05-14T10:35:51.925Z,96608.75
2023-05-14T10:38:23.859Z,96607.28
2023-05-14T10:40:54.090Z,96608.03
2023-05-14T10:43:24.233Z,96611.16
2023-05-14T10:45:53.103Z,96598.09
2023-05-14T10:48:21.281Z,96602.22
2023-05-14T10:50:49.175Z,96602.09
2023-05-14T10:53:16.715Z,96605.66
2023-05-14T10:55:44.977Z,96605.75
2023-05-14T10:58:13.489Z,96609.78
2023-05-14T11:00:41.843Z,96597.66
2023-05-14T11:03:13.028Z,96592.97
2023-05-14T11:05:41.902Z,96589.34
2023-05-14T11:08:10.041Z,96587.84
2023-05-14T11:10:38.889Z,96588.59
2023-05-14T11:13:07.031Z,96577.59
2023-05-14T11:15:34.617Z,96583.09
2023-05-14T11:18:02.218Z,96574.38
2023-05-14T11:20:32.672Z,96572.16
2023-05-14T11:23:00.262Z,96573.56
2023-05-14T11:25:27.885Z,96572.78
2023-05-14T11:27:58.583Z,96569.50
2023-05-14T11:30:26.131Z,96565.88
2023-05-14T11:32:54.283Z,96572.97
2023-05-14T11:35:21.998Z,96566.94
2023-05-14T11:37:54.015Z,96560.91
2023-05-14T11:40:21.990Z,96563.47
2023-05-14T11:42:52.001Z,96564.34
2023-05-14T11:45:26.751Z,96568.09
2023-05-14T11:47:54.782Z,96575.94
2023-05-14T11:50:23.517Z,96575.78
2023-05-14T11:52:52.038Z,96578.91
2023-05-14T11:55:21.062Z,96584.91
2023-05-14T11:57:48.832Z,96578.66
2023-05-14T12:00:21.657Z,96583.72
2023-05-14T12:02:50.462Z,96581.09
2023-05-14T12:05:20.076Z,96569.94
2023-05-14T12:07:48.227Z,96576.00
2023-05-14T12:10:15.855Z,96570.13
2023-05-14T12:12:46.922Z,96571.34
2023-05-14T12:15:16.285Z,96561.16
2023-05-14T12:17:44.280Z,96564.66
2023-05-14T12:20:12.882Z,96560.28
2023-05-14T12:22:42.614Z,96557.34
2023-05-14T12:25:14.321Z,96556.38
2023-05-14T12:27:42.202Z,96559.69
2023-05-14T12:30:21.220Z,96554.59
2023-05-14T12:32:51.699Z,96559.75
2023-05-14T12:35:19.917Z,96547.34
2023-05-14T12:37:47.515Z,96543.53
2023-05-14T12:40:15.170Z,96538.81
2023-05-14T12:42:42.672Z,96533.00
2023-05-14T12:45:12.689Z,96528.59
2023-05-14T12:47:40.347Z,96526.19
2023-05-14T12:50:08.857Z,96520.50
2023-05-14T12:52:39.165Z,96521.50
2023-05-14T12:55:08.116Z,96517.50
2023-05-14T12:57:36.021Z,96517.31
2023-05-14T13:00:06.849Z,96521.13
2023-05-14T13:02:42.790Z,96516.47
2023-05-14T13:05:11.671Z,96508.59
2023-05-14T13:07:39.419Z,96512.66
2023-05-14T13:10:08.074Z,96514.09
2023-05-14T13:12:35.604Z,96498.91
2023-05-14T13:15:03.154Z,96493.88
2023-05-14T13:17:31.137Z,96493.28
2023-05-14T13:20:00.172Z,96488.84
2023-05-14T13:22:27.715Z,96488.75
2023-05-14T13:24:55.221Z,96491.19
2023-05-14T13:27:22.714Z,96492.78
2023-05-14T13:29:50.228Z,96491.13
2023-05-14T13:32:17.739Z,96492.69
2023-05-14T13:34:45.245Z,96491.91
2023-05-14T13:37:14.628Z,96487.47
2023-05-14T13:39:42.130Z,96487.41
2023-05-14T13:42:09.704Z,96485.38
2023-05-14T13:44:37.262Z,96488.88
2023-05-14T13:47:05.258Z,96485.38
2023-05-14T13:49:32.771Z,96481.28
2023-05-14T13:52:00.249Z,96478.94
2023-05-14T13:54:29.134Z,96488.16
2023-05-14T13:56:56.808Z,96480.94
2023-05-14T13:59:24.561Z,96487.31
2023-05-14T14:01:52.200Z,96480.06
2023-05-14T14:04:19.908Z,96481.75
2023-05-14T14:06:47.429Z,96475.91
2023-05-14T14:09:14.985Z,96480.09
2023-05-14T14:11:43.955Z,96485.59
2023-05-14T14:14:11.483Z,96484.03
2023-05-14T14:16:39.094Z,96487.97
2023-05-14T14:19:07.412Z,96476.41
2023-05-14T14:21:36.101Z,96476.84
2023-05-14T14:24:03.702Z,96486.50
2023-05-14T14:26:31.231Z,96490.44
2023-05-14T14:29:00.051Z,96491.75
2023-05-14T14:31:27.600Z,96481.84
2023-05-14T14:33:55.114Z,96488.72
2023-05-14T14:36:22.717Z,96489.72
2023-05-14T14:38:50.339Z,96490.75
2023-05-14T14:41:17.847Z,96495.50
2023-05-14T14:43:45.401Z,96491.94
2023-05-14T14:46:14.254Z,96485.41
2023-05-14T14:48:41.805Z,96476.28
2023-05-14T14:51:10.250Z,96475.53
2023-05-14T14:53:37.895Z,96474.94
2023-05-14T14:56:06.167Z,96465.53
2023-05-14T14:58:33.852Z,96463.97
2023-05-14T15:01:01.917Z,96464.75
2023-05-14T15:03:31.277Z,96470.28
2023-05-14T15:05:59.091Z,96467.38
2023-05-14T15:08:27.796Z,96474.84
2023-05-14T15:10:55.523Z,96478.72
2023-05-14T15:13:23.270Z,96480.53
2023-05-14T15:15:52.128Z,96487.06
2023-05-14T15:18:19.674Z,96501.59
2023-05-14T15:20:48.599Z,96509.50
2023-05-14T15:23:16.130Z,96520.13
2023-05-14T15:25:43.656Z,96526.44
2023-05-14T15:28:11.242Z,96520.75
2023-05-14T15:30:38.863Z,96515.53
2023-05-14T15:33:08.516Z,96517.97
2023-05-14T15:35:36.454Z,96513.56
2023-05-14T15:38:05.423Z,96519.84
2023-05-14T15:40:34.833Z,96524.50
2023-05-14T15:43:02.686Z,96526.03
2023-05-14T15:45:30.203Z,96530.94
2023-05-14T15:47:57.880Z,96540.75
2023-05-14T15:50:26.257Z,96544.72
2023-05-14T15:52:54.384Z,96553.31
2023-05-14T15:55:23.510Z,96561.72
2023-05-14T15:57:51.113Z,96556.84
2023-05-14T16:00:19.542Z,96558.47
2023-05-14T16:02:47.180Z,96556.44
2023-05-14T16:05:15.291Z,96557.25
2023-05-14T16:07:43.306Z,96564.63
2023-05-14T16:10:11.446Z,96558.63
2023-05-14T16:12:40.387Z,96562.66
2023-05-14T16:15:08.854Z,96562.16
2023-05-14T16:17:36.457Z,96565.09
2023-05-14T16:20:05.573Z,96562.41
2023-05-14T16:22:34.611Z,96565.22
2023-05-14T16:25:03.482Z,96553.66
2023-05-14T16:27:31.453Z,96559.84
2023-05-14T16:30:00.639Z,96557.66
2023-05-14T16:32:28.229Z,96553.88
2023-05-14T16:34:56.396Z,96551.91
2023-05-14T16:37:24.053Z,96558.25
2023-05-14T16:39:51.581Z,96559.69
2023-05-14T16:42:19.150Z,96559.69
2023-05-14T16:44:46.684Z,96557.88
2023-05-14T16:47:15.633Z,96561.06
2023-05-14T16:49:43.309Z,96565.41
2023-05-14T16:52:10.955Z,96567.53
2023-05-14T16:54:39.548Z,96567.22
2023-05-14T16:57:07.092Z,96564.44
2023-05-14T16:59:34.869Z,96562.41
2023-05-14T17:02:02.657Z,96563.50
2023-05-14T17:04:33.136Z,96570.88
2023-05-14T17:07:01.431Z,96569.19
2023-05-14T17:09:28.954Z,96572.56
2023-05-14T17:11:56.608Z,96566.13
2023-05-14T17:14:24.167Z,96568.63
2023-05-14T17:16:51.687Z,96571.28
2023-05-14T17:19:19.217Z,96567.69
2023-05-14T17:21:48.117Z,96563.59
2023-05-14T17:24:15.726Z,96563.91
2023-05-14T17:26:43.258Z,96571.91
2023-05-14T17:29:10.754Z,96578.78
2023-05-14T17:31:38.334Z,96577.97
2023-05-14T17:34:05.901Z,96586.00
2023-05-14T17:36:33.444Z,96581.66
2023-05-14T17:39:02.317Z,96574.13
2023-05-14T17:41:29.806Z,96573.31
2023-05-14T17:43:57.324Z,96576.38
2023-05-14T17:46:24.919Z,96577.78
2023-05-14T17:48:52.463Z,96575.91
2023-05-14T17:51:19.973Z,96578.50
2023-05-14T17:53:47.469Z,96585.75
2023-05-14T17:56:18.306Z,96591.44
2023-05-14T17:58:46.390Z,96593.38
2023-05-14T18:01:14.053Z,96594.47
2023-05-14T18:03:42.235Z,96589.66
2023-05-14T18:06:09.897Z,96590.88
2023-05-14T18:08:37.795Z,96590.34
2023-05-14T18:11:05.386Z,96588.94
2023-05-14T18:13:34.247Z,96599.22
2023-05-14T18:16:01.863Z,96595.16
2023-05-14T18:18:29.454Z,96589.56
2023-05-14T18:20:57.100Z,96593.19
2023-05-14T18:23:24.645Z,96594.22
2023-05-14T18:25:52.218Z,96589.69
2023-05-14T18:28:21.308Z,96593.84
2023-05-14T18:30:50.345Z,96585.75
2023-05-14T18:33:18.044Z,96588.63
2023-05-14T18:35:45.684Z,96594.53
2023-05-14T18:38:13.718Z,96594.88
2023-05-14T18:40:43.824Z,96593.44
2023-05-14T18:43:13.208Z,96593.44
2023-05-14T18:45:40.843Z,96597.22
2023-05-14T18:48:10.281Z,96605.31
2023-05-14T18:50:39.407Z,96602.66
2023-05-14T18:53:08.308Z,96607.50
2023-05-14T18:55:36.317Z,96608.69
2023-05-14T18:58:03.975Z,96609.66
2023-05-14T19:00:31.467Z,96610.84
2023-05-14T19:02:59.086Z,96613.41
2023-05-14T19:05:27.993Z,96619.53
2023-05-14T19:07:55.627Z,96616.72
2023-05-14T19:10:23.170Z,96615.88
2023-05-14T19:12:50.978Z,96622.03
2023-05-14T19:15:18.595Z,96622.03
2023-05-14T19:17:46.254Z,96627.97
2023-05-14T19:20:13.940Z,96626.88
2023-05-14T19:22:42.804Z,96631.28
2023-05-14T19:25:11.508Z,96641.25
2023-05-14T19:27:39.341Z,96638.78
2023-05-14T19:30:08.043Z,96643.81
2023-05-14T19:32:37.417Z,96644.13
2023-05-14T19:35:05.581Z,96652.13
2023-05-14T19:37:33.153Z,96646.19
2023-05-14T19:40:02.067Z,96648.19
2023-05-14T19:42:30.580Z,96649.13
2023-05-14T19:44:58.133Z,96657.47
2023-05-14T19:47:25.795Z,96654.78
2023-05-14T19:49:53.326Z,96658.09
2023-05-14T19:52:20.896Z,96660.09
2023-05-14T19:54:48.432Z,96657.28
2023-05-14T19:57:17.307Z,96655.69
2023-05-14T19:59:45.033Z,96653.84
2023-05-14T20:02:18.012Z,96654.63
2023-05-14T20:04:45.966Z,96662.53
2023-05-14T20:07:15.437Z,96670.41
2023-05-14T20:09:43.209Z,96663.91
2023-05-14T20:12:12.747Z,96670.13
2023-05-14T20:14:41.755Z,96662.47
2023-05-14T20:17:09.494Z,96662.59
2023-05-14T20:19:37.082Z,96662.38
2023-05-14T20:22:04.767Z,96657.97
2023-05-14T20:24:32.368Z,96658.50
2023-05-14T20:26:59.883Z,96656.72
2023-05-14T20:29:27.347Z,96654.00
2023-05-14T20:31:56.839Z,96660.03
2023-05-14T20:34:24.551Z,96652.13
2023-05-14T20:36:52.129Z,96647.50
2023-05-14T20:39:19.695Z,96644.84
2023-05-14T20:41:47.232Z,96641.44
2023-05-14T20:44:14.814Z,96644.22
2023-05-14T20:46:42.390Z,96640.53
2023-05-14T20:49:11.342Z,96640.06
2023-05-14T20:51:38.908Z,96637.84
2023-05-14T20:54:06.540Z,96642.06
2023-05-14T20:56:36.436Z,96635.41
2023-05-14T20:59:03.970Z,96631.50
2023-05-14T21:01:31.513Z,96637.91
2023-05-14T21:03:59.262Z,96636.38
2023-05-14T21:06:28.375Z,96632.75
2023-05-14T21:08:55.916Z,96636.50
2023-05-14T21:11:23.854Z,96642.16
2023-05-14T21:13:51.384Z,96634.03
2023-05-14T21:16:19.878Z,96625.56
2023-05-14T21:18:47.458Z,96629.81
2023-05-14T21:21:14.967Z,96627.28
2023-05-14T21:23:43.848Z,96624.00
2023-05-14T21:26:11.429Z,96629.50
2023-05-14T21:28:38.964Z,96616.22
2023-05-14T21:31:06.653Z,96616.03
2023-05-14T21:33:34.238Z,96619.31
2023-05-14T21:36:01.831Z,96618.81
2023-05-14T21:38:29.462Z,96607.31
2023-05-14T21:40:58.321Z,96604.94
2023-05-14T21:43:25.870Z,96613.84
2023-05-14T21:45:53.598Z,96611.16
2023-05-14T21:48:21.427Z,96609.50
2023-05-14T21:50:49.162Z,96610.09
2023-05-14T21:53:16.864Z,96613.97
2023-05-14T21:55:44.429Z,96618.88
2023-05-14T21:58:13.405Z,96610.03
2023-05-14T22:00:41.089Z,96608.84
2023-05-14T22:03:08.720Z,96604.31
2023-05-14T22:05:36.500Z,96610.88
2023-05-14T22:08:04.030Z,96602.91
2023-05-14T22:10:31.618Z,96605.25
2023-05-14T22:12:59.149Z,96603.53
2023-05-14T22:15:28.107Z,96608.25
2023-05-14T22:17:55.747Z,96607.00
2023-05-14T22:20:23.460Z,96604.50
2023-05-14T22:22:51.449Z,96592.50
2023-05-14T22:25:19.009Z,96585.28
2023-05-14T22:27:46.556Z,96592.44
2023-05-14T22:30:14.252Z,96590.25
2023-05-14T22:32:43.292Z,96591.03
2023-05-14T22:35:11.092Z,96595.41
2023-05-14T22:37:38.742Z,96594.81
2023-05-14T22:40:08.744Z,96595.09
2023-05-14T22:42:36.407Z,96591.03
2023-05-14T22:45:04.008Z,96594.50
2023-05-14T22:47:31.827Z,96591.38
2023-05-14T22:50:00.739Z,96595.44
2023-05-14T22:52:28.319Z,96589.97
2023-05-14T22:54:55.896Z,96600.88
2023-05-14T22:57:23.484Z,96592.59
2023-05-14T22:59:50.990Z,96599.66
2023-05-14T23:02:18.517Z,96597.91
2023-05-14T23:04:46.116Z,96596.50
2023-05-14T23:07:15.209Z,96593.84
2023-05-14T23:09:42.739Z,96596.81
2023-05-14T23:12:10.631Z,96601.66
2023-05-14T23:14:38.322Z,96600.25
2023-05-14T23:17:06.878Z,96596.50
2023-05-14T23:19:34.425Z,96599.34
2023-05-14T23:22:01.992Z,96599.16
2023-05-14T23:24:30.866Z,96593.09
2023-05-14T23:26:58.429Z,96593.22
2023-05-14T23:29:25.994Z,96587.63
2023-05-14T23:31:53.593Z,96590.56
2023-05-14T23:34:22.006Z,96588.84
2023-05-14T23:36:49.629Z,96592.13
2023-05-14T23:39:17.381Z,96584.34
2023-05-14T23:41:46.293Z,96584.34
2023-05-14T23:44:13.876Z,96576.19
2023-05-14T23:46:41.440Z,96576.19
2023-05-14T23:49:08.993Z,96571.66
2023-05-14T23:51:37.670Z,96557.50
2023-05-14T23:54:05.444Z,96566.53
2023-05-14T23:56:33.572Z,96562.00
2023-05-14T23:59:03.487Z,96557.50
